createdAt,value
2022-09-15T00:00:04.329Z,0.00
2022-09-15T00:01:04.317Z,0.00
2022-09-15T00:02:04.530Z,0.00
2022-09-15T00:03:04.372Z,0.00
2022-09-15T00:04:04.313Z,0.00
2022-09-15T00:05:04.276Z,0.00
2022-09-15T00:06:04.275Z,0.00
2022-09-15T00:07:04.367Z,0.00
2022-09-15T00:08:04.242Z,0.00
2022-09-15T00:09:04.271Z,0.00
2022-09-15T00:10:04.260Z,0.00
2022-09-15T00:11:04.218Z,0.00
2022-09-15T00:12:04.255Z,0.00
2022-09-15T00:13:04.216Z,0.00
2022-09-15T00:14:04.184Z,0.00
2022-09-15T00:15:04.190Z,0.00
2022-09-15T00:16:04.170Z,0.00
2022-09-15T00:17:04.269Z,0.00
2022-09-15T00:18:04.145Z,0.00
2022-09-15T00:19:04.167Z,0.00
2022-09-15T00:20:04.123Z,0.00
2022-09-15T00:21:04.124Z,0.00
2022-09-15T00:22:04.126Z,0.00
2022-09-15T00:23:04.106Z,0.00
2022-09-15T00:24:04.093Z,0.00
2022-09-15T00:25:04.068Z,0.00
2022-09-15T00:26:04.071Z,0.00
2022-09-15T00:27:04.074Z,0.00
2022-09-15T00:28:04.050Z,0.00
2022-09-15T00:29:04.037Z,0.00
2022-09-15T00:30:04.014Z,0.00
2022-09-15T00:31:04.064Z,0.00
2022-09-15T00:32:03.997Z,0.00
2022-09-15T00:33:04.048Z,0.00
2022-09-15T00:34:03.990Z,0.00
2022-09-15T00:35:03.972Z,0.00
2022-09-15T00:36:03.988Z,0.00
2022-09-15T00:37:03.960Z,0.00
2022-09-15T00:38:03.935Z,0.00
2022-09-15T00:39:04.059Z,0.00
2022-09-15T00:40:04.043Z,0.00
2022-09-15T00:41:03.912Z,0.00
2022-09-15T00:42:03.910Z,0.00
2022-09-15T00:43:03.913Z,0.00
2022-09-15T00:44:03.911Z,0.00
2022-09-15T00:45:03.871Z,0.00
2022-09-15T00:46:03.985Z,0.00
2022-09-15T00:47:18.810Z,0.00
2022-09-15T00:48:04.839Z,0.00
2022-09-15T00:49:03.827Z,0.00
2022-09-15T00:50:03.831Z,0.00
2022-09-15T00:51:03.806Z,0.00
2022-09-15T00:52:03.817Z,0.00
2022-09-15T00:53:03.788Z,0.00
2022-09-15T00:54:03.764Z,0.00
2022-09-15T00:55:03.779Z,0.00
2022-09-15T00:56:03.750Z,0.00
2022-09-15T00:57:03.818Z,0.00
2022-09-15T00:58:03.749Z,0.00
2022-09-15T00:59:03.714Z,0.00
2022-09-15T01:00:03.710Z,0.00
2022-09-15T01:01:03.780Z,0.00
2022-09-15T01:02:03.754Z,0.00
2022-09-15T01:03:03.695Z,0.00
2022-09-15T01:04:03.687Z,0.00
2022-09-15T01:05:03.660Z,0.00
2022-09-15T01:06:03.644Z,0.00
2022-09-15T01:07:03.656Z,0.00
2022-09-15T01:08:03.646Z,0.00
2022-09-15T01:09:03.620Z,0.00
2022-09-15T01:10:03.621Z,0.00
2022-09-15T01:11:03.607Z,0.00
2022-09-15T01:12:03.591Z,0.00
2022-09-15T01:13:03.570Z,0.00
2022-09-15T01:14:03.571Z,0.00
2022-09-15T01:15:03.615Z,0.00
2022-09-15T01:16:03.660Z,0.00
2022-09-15T01:17:03.534Z,0.00
2022-09-15T01:18:03.525Z,0.00
2022-09-15T01:19:03.510Z,0.00
2022-09-15T01:20:03.501Z,0.00
2022-09-15T01:21:03.521Z,0.00
2022-09-15T01:22:03.482Z,0.00
2022-09-15T01:23:03.477Z,0.00
2022-09-15T01:24:03.468Z,0.00
2022-09-15T01:25:03.479Z,0.00
2022-09-15T01:26:03.437Z,0.00
2022-09-15T01:27:18.484Z,0.00
2022-09-15T01:28:04.415Z,0.00
2022-09-15T01:29:03.403Z,0.00
2022-09-15T01:30:03.421Z,0.00
2022-09-15T01:31:03.400Z,0.00
2022-09-15T01:32:03.440Z,0.00
2022-09-15T01:33:03.416Z,0.00
2022-09-15T01:34:03.376Z,0.00
2022-09-15T01:35:03.359Z,0.00
2022-09-15T01:36:03.337Z,0.00
2022-09-15T01:37:03.329Z,0.00
2022-09-15T01:38:03.342Z,0.00
2022-09-15T01:39:11.963Z,0.00
2022-09-15T01:40:11.977Z,0.00
2022-09-15T01:41:10.968Z,0.00
2022-09-15T01:42:10.936Z,0.00
2022-09-15T01:43:03.312Z,0.00
2022-09-15T01:44:03.344Z,0.00
2022-09-15T01:45:03.252Z,0.00
2022-09-15T01:46:03.315Z,0.00
2022-09-15T01:47:03.234Z,0.00
2022-09-15T01:48:03.218Z,0.00
2022-09-15T01:49:03.215Z,0.00
2022-09-15T01:50:03.200Z,0.00
2022-09-15T01:51:03.183Z,0.00
2022-09-15T01:52:03.180Z,0.00
2022-09-15T01:53:03.181Z,0.00
2022-09-15T01:54:03.188Z,0.00
2022-09-15T01:55:03.149Z,0.00
2022-09-15T01:56:03.135Z,0.00
2022-09-15T01:57:03.128Z,0.00
2022-09-15T01:58:03.134Z,0.00
2022-09-15T01:59:03.100Z,0.00
2022-09-15T02:00:03.104Z,0.00
2022-09-15T02:01:03.180Z,0.00
2022-09-15T02:02:03.165Z,0.00
2022-09-15T02:03:03.068Z,0.00
2022-09-15T02:04:03.043Z,0.00
2022-09-15T02:05:03.052Z,0.00
2022-09-15T02:06:03.049Z,0.00
2022-09-15T02:07:03.031Z,0.00
2022-09-15T02:08:03.009Z,0.00
2022-09-15T02:09:03.004Z,0.00
2022-09-15T02:10:02.982Z,0.00
2022-09-15T02:11:02.979Z,0.00
2022-09-15T02:12:02.979Z,0.00
2022-09-15T02:13:02.946Z,0.00
2022-09-15T02:14:02.951Z,0.00
2022-09-15T02:15:02.923Z,0.00
2022-09-15T02:16:02.955Z,0.00
2022-09-15T02:17:02.933Z,0.00
2022-09-15T02:18:02.930Z,0.00
2022-09-15T02:19:02.886Z,0.00
2022-09-15T02:20:02.876Z,0.00
2022-09-15T02:21:02.864Z,0.00
2022-09-15T02:22:02.854Z,0.00
2022-09-15T02:23:02.850Z,0.00
2022-09-15T02:24:02.880Z,0.00
2022-09-15T02:25:02.833Z,0.00
2022-09-15T02:26:02.831Z,0.00
2022-09-15T02:27:02.800Z,0.00
2022-09-15T02:28:02.809Z,0.00
2022-09-15T02:29:02.782Z,0.00
2022-09-15T02:30:02.799Z,0.00
2022-09-15T02:31:02.767Z,0.00
2022-09-15T02:32:07.081Z,0.00
2022-09-15T02:33:02.750Z,0.00
2022-09-15T02:34:02.727Z,0.00
2022-09-15T02:35:02.714Z,0.00
2022-09-15T02:36:02.707Z,0.00
2022-09-15T02:37:02.702Z,0.00
2022-09-15T02:38:02.689Z,0.00
2022-09-15T02:39:02.674Z,0.00
2022-09-15T02:40:02.732Z,0.00
2022-09-15T02:41:02.684Z,0.00
2022-09-15T02:42:02.633Z,0.00
2022-09-15T02:43:02.666Z,0.00
2022-09-15T02:44:02.609Z,0.00
2022-09-15T02:45:02.615Z,0.00
2022-09-15T02:46:02.678Z,0.00
2022-09-15T02:47:02.595Z,0.00
2022-09-15T02:48:02.628Z,0.00
2022-09-15T02:49:02.587Z,0.00
2022-09-15T02:50:02.578Z,0.00
2022-09-15T02:51:02.528Z,0.00
2022-09-15T02:52:02.535Z,0.00
2022-09-15T02:53:02.529Z,0.00
2022-09-15T02:54:02.506Z,0.00
2022-09-15T02:55:02.511Z,0.00
2022-09-15T02:56:02.528Z,0.00
2022-09-15T02:57:02.489Z,0.00
2022-09-15T02:58:02.462Z,0.00
2022-09-15T02:59:02.461Z,0.00
2022-09-15T03:00:02.448Z,0.00
2022-09-15T03:01:02.515Z,0.00
2022-09-15T03:02:02.511Z,0.00
2022-09-15T03:03:02.416Z,0.00
2022-09-15T03:04:02.402Z,0.00
2022-09-15T03:05:02.398Z,0.00
2022-09-15T03:06:02.400Z,0.00
2022-09-15T03:07:02.395Z,0.00
2022-09-15T03:08:02.364Z,0.00
2022-09-15T03:09:02.354Z,0.00
2022-09-15T03:10:02.384Z,0.00
2022-09-15T03:11:02.336Z,0.00
2022-09-15T03:12:02.326Z,0.00
2022-09-15T03:13:02.333Z,0.00
2022-09-15T03:14:02.290Z,0.00
2022-09-15T03:15:02.293Z,0.00
2022-09-15T03:16:02.337Z,0.00
2022-09-15T03:17:02.304Z,0.00
2022-09-15T03:18:02.277Z,0.00
2022-09-15T03:19:02.254Z,0.00
2022-09-15T03:20:02.238Z,0.00
2022-09-15T03:21:02.237Z,0.00
2022-09-15T03:22:02.224Z,0.00
2022-09-15T03:23:02.217Z,0.00
2022-09-15T03:24:02.200Z,0.00
2022-09-15T03:25:02.197Z,0.00
2022-09-15T03:26:02.173Z,0.00
2022-09-15T03:27:02.183Z,0.00
2022-09-15T03:28:02.180Z,0.00
2022-09-15T03:29:02.152Z,0.00
2022-09-15T03:30:02.144Z,0.00
2022-09-15T03:31:02.371Z,0.00
2022-09-15T03:32:02.118Z,0.00
2022-09-15T03:33:02.152Z,0.00
2022-09-15T03:34:02.114Z,0.00
2022-09-15T03:35:02.126Z,0.00
2022-09-15T03:36:02.071Z,0.00
2022-09-15T03:37:02.093Z,0.00
2022-09-15T03:38:02.070Z,0.00
2022-09-15T03:39:02.067Z,0.00
2022-09-15T03:40:02.212Z,0.00
2022-09-15T03:41:02.068Z,0.00
2022-09-15T03:42:02.020Z,0.00
2022-09-15T03:43:02.044Z,0.00
2022-09-15T03:44:02.010Z,0.00
2022-09-15T03:45:01.974Z,0.00
2022-09-15T03:46:02.063Z,0.00
2022-09-15T03:47:01.955Z,0.00
2022-09-15T03:48:01.947Z,0.00
2022-09-15T03:49:01.937Z,0.00
2022-09-15T03:50:01.942Z,0.00
2022-09-15T03:51:01.917Z,0.00
2022-09-15T03:52:01.935Z,0.00
2022-09-15T03:53:01.891Z,0.00
2022-09-15T03:54:01.891Z,0.00
2022-09-15T03:55:01.869Z,0.00
2022-09-15T03:56:01.892Z,0.00
2022-09-15T03:57:01.848Z,0.00
2022-09-15T03:58:01.837Z,0.00
2022-09-15T03:59:01.866Z,0.00
2022-09-15T04:00:10.547Z,0.00
2022-09-15T04:01:02.074Z,0.00
2022-09-15T04:02:12.701Z,0.00
2022-09-15T04:03:01.896Z,0.00
2022-09-15T04:04:01.778Z,0.00
2022-09-15T04:05:01.883Z,0.00
2022-09-15T04:06:01.836Z,0.00
2022-09-15T04:07:01.733Z,0.00
2022-09-15T04:08:01.790Z,0.00
2022-09-15T04:09:01.728Z,0.00
2022-09-15T04:10:01.799Z,0.00
2022-09-15T04:11:01.735Z,0.00
2022-09-15T04:12:01.694Z,0.00
2022-09-15T04:13:01.725Z,0.00
2022-09-15T04:14:01.739Z,0.00
2022-09-15T04:15:01.652Z,0.00
2022-09-15T04:16:01.736Z,0.00
2022-09-15T04:17:01.647Z,0.00
2022-09-15T04:18:01.681Z,0.00
2022-09-15T04:19:01.646Z,0.00
2022-09-15T04:20:01.598Z,0.00
2022-09-15T04:21:01.595Z,0.00
2022-09-15T04:22:01.592Z,0.00
2022-09-15T04:23:01.576Z,0.00
2022-09-15T04:24:01.589Z,0.00
2022-09-15T04:25:01.717Z,0.00
2022-09-15T04:26:01.569Z,0.00
2022-09-15T04:27:01.539Z,0.00
2022-09-15T04:28:01.564Z,0.00
2022-09-15T04:29:04.333Z,0.00
2022-09-15T04:30:01.510Z,0.00
2022-09-15T04:32:29.914Z,0.00
2022-09-15T04:33:29.829Z,0.00
2022-09-15T04:36:52.159Z,5.62
2022-09-15T04:37:52.128Z,5.62
2022-09-15T04:38:52.193Z,5.62
2022-09-15T04:39:52.172Z,5.62
2022-09-15T04:41:00.655Z,5.62
2022-09-15T04:42:02.431Z,11.25
2022-09-15T04:43:01.273Z,11.25
2022-09-15T04:43:51.991Z,11.25
2022-09-15T04:47:12.683Z,16.88
2022-09-15T04:48:12.704Z,16.88
2022-09-15T04:49:12.614Z,16.88
2022-09-15T04:50:12.705Z,22.50
2022-09-15T04:51:12.618Z,22.50
2022-09-15T04:52:12.531Z,22.50
2022-09-15T04:53:12.571Z,22.50
2022-09-15T04:54:12.497Z,28.12
2022-09-15T04:55:12.484Z,28.12
2022-09-15T04:56:12.499Z,28.12
2022-09-15T04:57:12.466Z,33.75
2022-09-15T04:58:12.460Z,33.75
2022-09-15T04:59:12.456Z,33.75
2022-09-15T05:00:12.451Z,39.38
2022-09-15T05:01:12.541Z,39.38
2022-09-15T05:02:12.459Z,39.38
2022-09-15T05:03:12.440Z,45.00
2022-09-15T05:04:12.392Z,45.00
2022-09-15T05:05:12.388Z,45.00
2022-09-15T05:06:12.404Z,50.62
2022-09-15T05:07:12.401Z,50.62
2022-09-15T05:08:12.372Z,50.62
2022-09-15T05:09:12.365Z,56.25
2022-09-15T05:10:12.356Z,56.25
2022-09-15T05:11:12.331Z,61.88
2022-09-15T05:12:12.319Z,61.88
2022-09-15T05:13:12.316Z,61.88
2022-09-15T05:14:12.303Z,67.50
2022-09-15T05:15:12.285Z,67.50
2022-09-15T05:16:12.333Z,67.50
2022-09-15T05:17:12.276Z,73.12
2022-09-15T05:18:12.357Z,73.12
2022-09-15T05:19:12.252Z,78.75
2022-09-15T05:20:12.239Z,78.75
2022-09-15T05:21:12.292Z,78.75
2022-09-15T05:22:12.283Z,84.38
2022-09-15T05:23:12.297Z,84.38
2022-09-15T05:24:12.207Z,84.38
2022-09-15T05:25:12.519Z,90.00
2022-09-15T05:26:12.181Z,90.00
2022-09-15T05:27:12.268Z,90.00
2022-09-15T05:28:12.273Z,95.62
2022-09-15T05:29:12.172Z,95.62
2022-09-15T05:31:13.250Z,101.25
2022-09-15T05:32:12.096Z,101.25
2022-09-15T05:33:12.137Z,101.25
2022-09-15T05:34:12.194Z,106.88
2022-09-15T05:35:12.083Z,106.88
2022-09-15T05:36:12.063Z,106.88
2022-09-15T05:37:12.108Z,112.50
2022-09-15T05:38:12.070Z,118.12
2022-09-15T05:39:12.039Z,123.75
2022-09-15T05:40:12.090Z,135.00
2022-09-15T05:41:12.110Z,163.12
2022-09-15T05:42:12.007Z,157.50
2022-09-15T05:43:12.003Z,157.50
2022-09-15T05:44:11.989Z,163.12
2022-09-15T05:45:11.971Z,168.75
2022-09-15T05:46:12.197Z,168.75
2022-09-15T05:47:12.035Z,163.12
2022-09-15T05:48:11.958Z,157.50
2022-09-15T05:49:12.028Z,163.12
2022-09-15T05:50:11.958Z,163.12
2022-09-15T05:51:11.897Z,163.12
2022-09-15T05:52:11.907Z,163.12
2022-09-15T05:53:11.886Z,163.12
2022-09-15T05:54:11.873Z,163.12
2022-09-15T05:55:11.871Z,157.50
2022-09-15T05:56:11.849Z,157.50
2022-09-15T05:57:11.877Z,151.88
2022-09-15T05:58:11.821Z,146.25
2022-09-15T05:59:11.822Z,140.62
2022-09-15T06:00:11.815Z,135.00
2022-09-15T06:01:11.794Z,129.38
2022-09-15T06:02:11.911Z,129.38
2022-09-15T06:03:11.830Z,129.38
2022-09-15T06:04:11.749Z,129.38
2022-09-15T06:05:11.807Z,135.00
2022-09-15T06:06:11.739Z,140.62
2022-09-15T06:07:11.724Z,140.62
2022-09-15T06:08:11.803Z,151.88
2022-09-15T06:09:11.757Z,168.75
2022-09-15T06:10:11.702Z,185.62
2022-09-15T06:11:11.684Z,196.88
2022-09-15T06:12:11.666Z,208.12
2022-09-15T06:13:11.681Z,219.38
2022-09-15T06:14:11.672Z,225.00
2022-09-15T06:15:11.640Z,219.38
2022-09-15T06:16:11.697Z,208.12
2022-09-15T06:17:11.618Z,213.75
2022-09-15T06:18:11.633Z,208.12
2022-09-15T06:19:11.597Z,208.12
2022-09-15T06:20:11.611Z,208.12
2022-09-15T06:21:11.560Z,208.12
2022-09-15T06:22:19.270Z,208.12
2022-09-15T06:23:19.390Z,208.12
2022-09-15T06:24:11.692Z,208.12
2022-09-15T06:25:19.255Z,219.38
2022-09-15T06:26:11.658Z,219.38
2022-09-15T06:27:11.609Z,225.00
2022-09-15T06:28:11.590Z,225.00
2022-09-15T06:29:11.629Z,230.62
2022-09-15T06:30:11.547Z,225.00
2022-09-15T06:31:11.466Z,225.00
2022-09-15T06:32:11.473Z,236.25
2022-09-15T06:33:11.501Z,236.25
2022-09-15T06:34:11.479Z,247.50
2022-09-15T06:35:11.433Z,258.75
2022-09-15T06:36:11.420Z,253.12
2022-09-15T06:37:11.411Z,247.50
2022-09-15T06:38:11.401Z,247.50
2022-09-15T06:39:11.392Z,253.12
2022-09-15T06:40:11.566Z,258.75
2022-09-15T06:41:11.447Z,264.38
2022-09-15T06:42:13.843Z,275.62
2022-09-15T06:43:11.344Z,270.00
2022-09-15T06:44:11.333Z,264.38
2022-09-15T06:45:11.325Z,258.75
2022-09-15T06:46:11.468Z,264.38
2022-09-15T06:47:11.551Z,275.62
2022-09-15T06:48:24.096Z,292.50
2022-09-15T06:49:12.276Z,292.50
2022-09-15T06:50:11.266Z,292.50
2022-09-15T06:51:11.305Z,286.88
2022-09-15T06:52:11.290Z,292.50
2022-09-15T06:53:11.227Z,286.88
2022-09-15T06:54:11.230Z,286.88
2022-09-15T06:55:11.219Z,292.50
2022-09-15T06:56:11.191Z,292.50
2022-09-15T06:57:11.202Z,292.50
2022-09-15T06:58:11.194Z,298.12
2022-09-15T06:59:11.168Z,298.12
2022-09-15T07:00:11.158Z,292.50
2022-09-15T07:01:11.176Z,303.75
2022-09-15T07:02:11.259Z,315.00
2022-09-15T07:03:11.247Z,320.62
2022-09-15T07:04:11.118Z,326.25
2022-09-15T07:05:11.119Z,331.88
2022-09-15T07:06:11.091Z,331.88
2022-09-15T07:07:11.093Z,331.88
2022-09-15T07:08:11.078Z,326.25
2022-09-15T07:09:11.081Z,315.00
2022-09-15T07:10:11.051Z,315.00
2022-09-15T07:11:11.035Z,315.00
2022-09-15T07:12:11.034Z,315.00
2022-09-15T07:13:11.020Z,303.75
2022-09-15T07:14:11.011Z,315.00
2022-09-15T07:15:11.057Z,320.62
2022-09-15T07:16:11.051Z,326.25
2022-09-15T07:17:11.003Z,320.62
2022-09-15T07:18:10.999Z,320.62
2022-09-15T07:19:10.966Z,320.62
2022-09-15T07:20:10.940Z,326.25
2022-09-15T07:21:10.970Z,331.88
2022-09-15T07:22:10.930Z,343.12
2022-09-15T07:23:10.958Z,348.75
2022-09-15T07:24:10.913Z,348.75
2022-09-15T07:25:10.931Z,354.38
2022-09-15T07:26:10.912Z,343.12
2022-09-15T07:27:11.128Z,343.12
2022-09-15T07:28:10.887Z,343.12
2022-09-15T07:29:10.873Z,343.12
2022-09-15T07:30:10.850Z,343.12
2022-09-15T07:31:10.895Z,348.75
2022-09-15T07:32:10.844Z,343.12
2022-09-15T07:33:10.832Z,343.12
2022-09-15T07:34:10.827Z,348.75
2022-09-15T07:35:10.786Z,360.00
2022-09-15T07:36:10.834Z,371.25
2022-09-15T07:37:10.770Z,376.88
2022-09-15T07:38:10.814Z,376.88
2022-09-15T07:39:10.768Z,376.88
2022-09-15T07:40:10.945Z,388.12
2022-09-15T07:41:10.748Z,393.75
2022-09-15T07:42:10.768Z,399.38
2022-09-15T07:43:10.757Z,405.00
2022-09-15T07:44:10.698Z,399.38
2022-09-15T07:45:10.699Z,399.38
2022-09-15T07:46:10.711Z,399.38
2022-09-15T07:47:10.757Z,410.62
2022-09-15T07:48:10.669Z,421.88
2022-09-15T07:49:10.651Z,421.88
2022-09-15T07:50:10.642Z,421.88
2022-09-15T07:51:10.628Z,421.88
2022-09-15T07:52:10.621Z,433.12
2022-09-15T07:53:10.617Z,450.00
2022-09-15T07:54:10.624Z,466.88
2022-09-15T07:55:10.591Z,472.50
2022-09-15T07:56:10.572Z,472.50
2022-09-15T07:57:10.551Z,478.12
2022-09-15T07:58:10.549Z,489.38
2022-09-15T07:59:10.543Z,500.62
2022-09-15T08:00:10.547Z,506.25
2022-09-15T08:01:10.641Z,500.62
2022-09-15T08:02:10.568Z,489.38
2022-09-15T08:03:10.512Z,483.75
2022-09-15T08:04:10.488Z,478.12
2022-09-15T08:05:10.493Z,478.12
2022-09-15T08:06:10.482Z,483.75
2022-09-15T08:07:10.448Z,489.38
2022-09-15T08:08:10.433Z,483.75
2022-09-15T08:09:10.431Z,466.88
2022-09-15T08:10:10.431Z,444.38
2022-09-15T08:11:12.196Z,410.62
2022-09-15T08:12:10.401Z,371.25
2022-09-15T08:13:10.452Z,360.00
2022-09-15T08:14:10.380Z,371.25
2022-09-15T08:15:10.370Z,393.75
2022-09-15T08:16:10.432Z,416.25
2022-09-15T08:17:11.666Z,433.12
2022-09-15T08:18:10.343Z,472.50
2022-09-15T08:19:10.353Z,483.75
2022-09-15T08:20:10.306Z,483.75
2022-09-15T08:21:10.318Z,489.38
2022-09-15T08:22:10.323Z,461.25
2022-09-15T08:23:10.283Z,427.50
2022-09-15T08:24:10.262Z,444.38
2022-09-15T08:25:10.301Z,478.12
2022-09-15T08:26:13.902Z,495.00
2022-09-15T08:27:10.252Z,466.88
2022-09-15T08:28:10.239Z,410.62
2022-09-15T08:29:10.259Z,399.38
2022-09-15T08:30:10.207Z,421.88
2022-09-15T08:31:17.991Z,416.25
2022-09-15T08:32:10.267Z,427.50
2022-09-15T08:33:19.938Z,444.38
2022-09-15T08:36:31.538Z,472.50
2022-09-15T08:37:31.564Z,466.88
2022-09-15T08:38:31.464Z,450.00
2022-09-15T08:39:31.489Z,421.88
2022-09-15T08:40:31.498Z,388.12
2022-09-15T08:41:31.448Z,360.00
2022-09-15T08:42:31.370Z,354.38
2022-09-15T08:43:31.357Z,354.38
2022-09-15T08:44:40.305Z,348.75
2022-09-15T08:45:31.499Z,354.38
2022-09-15T08:46:31.439Z,331.88
2022-09-15T08:47:31.561Z,320.62
2022-09-15T08:48:31.387Z,348.75
2022-09-15T08:49:50.420Z,410.62
2022-09-15T08:50:32.371Z,433.12
2022-09-15T08:51:31.276Z,483.75
2022-09-15T08:52:31.277Z,517.50
2022-09-15T08:53:31.277Z,517.50
2022-09-15T08:54:31.237Z,534.38
2022-09-15T08:55:31.275Z,551.25
2022-09-15T08:56:31.216Z,562.50
2022-09-15T08:57:31.226Z,551.25
2022-09-15T08:58:31.187Z,534.38
2022-09-15T08:59:31.208Z,528.75
2022-09-15T09:00:31.191Z,534.38
2022-09-15T09:01:31.242Z,556.88
2022-09-15T09:02:31.256Z,556.88
2022-09-15T09:03:31.238Z,551.25
2022-09-15T09:04:31.129Z,551.25
2022-09-15T09:05:31.117Z,551.25
2022-09-15T09:06:31.130Z,540.00
2022-09-15T09:07:31.191Z,545.62
2022-09-15T09:08:31.181Z,545.62
2022-09-15T09:09:31.077Z,540.00
2022-09-15T09:10:31.066Z,528.75
2022-09-15T09:11:31.060Z,540.00
2022-09-15T09:12:31.062Z,528.75
2022-09-15T09:13:35.390Z,534.38
2022-09-15T09:14:31.044Z,534.38
2022-09-15T09:15:31.101Z,528.75
2022-09-15T09:16:31.002Z,523.12
2022-09-15T09:17:31.013Z,511.88
2022-09-15T09:18:30.994Z,506.25
2022-09-15T09:19:32.312Z,500.62
2022-09-15T09:20:30.958Z,495.00
2022-09-15T09:21:30.997Z,483.75
2022-09-15T09:22:30.940Z,483.75
2022-09-15T09:23:30.924Z,483.75
2022-09-15T09:24:30.997Z,478.12
2022-09-15T09:25:30.914Z,438.75
2022-09-15T09:26:30.887Z,410.62
2022-09-15T09:27:30.881Z,388.12
2022-09-15T09:28:30.923Z,376.88
2022-09-15T09:29:30.871Z,376.88
2022-09-15T09:30:30.991Z,393.75
2022-09-15T09:31:30.966Z,416.25
2022-09-15T09:32:30.854Z,455.62
2022-09-15T09:33:30.895Z,483.75
2022-09-15T09:34:30.866Z,523.12
2022-09-15T09:35:30.820Z,579.38
2022-09-15T09:36:30.788Z,607.50
2022-09-15T09:37:30.786Z,607.50
2022-09-15T09:38:30.790Z,641.25
2022-09-15T09:39:30.780Z,658.12
2022-09-15T09:40:30.838Z,669.38
2022-09-15T09:41:30.743Z,663.75
2022-09-15T09:42:30.784Z,646.88
2022-09-15T09:43:30.878Z,630.00
2022-09-15T09:44:30.728Z,618.75
2022-09-15T09:45:30.783Z,618.75
2022-09-15T09:46:30.750Z,618.75
2022-09-15T09:47:30.703Z,590.62
2022-09-15T09:48:30.665Z,579.38
2022-09-15T09:49:30.670Z,573.75
2022-09-15T09:50:30.641Z,556.88
2022-09-15T09:51:30.644Z,528.75
2022-09-15T09:52:30.719Z,483.75
2022-09-15T09:53:30.753Z,461.25
2022-09-15T09:54:30.600Z,438.75
2022-09-15T09:55:30.602Z,405.00
2022-09-15T09:56:30.596Z,365.62
2022-09-15T09:57:30.609Z,337.50
2022-09-15T09:58:30.561Z,320.62
2022-09-15T09:59:30.573Z,309.38
2022-09-15T10:00:30.534Z,303.75
2022-09-15T10:01:30.661Z,315.00
2022-09-15T10:02:30.516Z,326.25
2022-09-15T10:03:33.005Z,331.88
2022-09-15T10:04:30.552Z,337.50
2022-09-15T10:05:30.487Z,354.38
2022-09-15T10:06:30.467Z,354.38
2022-09-15T10:07:30.503Z,376.88
2022-09-15T10:08:30.444Z,393.75
2022-09-15T10:09:33.424Z,410.62
2022-09-15T10:10:30.437Z,410.62
2022-09-15T10:11:30.418Z,416.25
2022-09-15T10:12:30.425Z,444.38
2022-09-15T10:13:30.454Z,455.62
2022-09-15T10:14:30.380Z,461.25
2022-09-15T10:15:30.498Z,472.50
2022-09-15T10:16:30.423Z,466.88
2022-09-15T10:17:30.388Z,455.62
2022-09-15T10:18:30.360Z,461.25
2022-09-15T10:19:30.338Z,455.62
2022-09-15T10:20:30.343Z,472.50
2022-09-15T10:21:30.313Z,472.50
2022-09-15T10:22:30.352Z,523.12
2022-09-15T10:23:30.283Z,556.88
2022-09-15T10:24:30.274Z,568.12
2022-09-15T10:25:49.408Z,573.75
2022-09-15T10:26:31.262Z,601.88
2022-09-15T10:27:30.253Z,663.75
2022-09-15T10:28:30.241Z,742.50
2022-09-15T10:29:30.306Z,798.75
2022-09-15T10:30:30.227Z,793.12
2022-09-15T10:31:30.305Z,753.75
2022-09-15T10:32:30.194Z,714.38
2022-09-15T10:33:30.193Z,590.62
2022-09-15T10:34:30.211Z,596.25
2022-09-15T10:35:30.193Z,568.12
2022-09-15T10:36:30.300Z,523.12
2022-09-15T10:37:30.159Z,511.88
2022-09-15T10:38:30.127Z,478.12
2022-09-15T10:39:30.116Z,455.62
2022-09-15T10:40:40.106Z,478.12
2022-09-15T10:41:38.802Z,511.88
2022-09-15T10:42:37.872Z,511.88
2022-09-15T10:43:38.168Z,478.12
2022-09-15T10:44:30.175Z,455.62
2022-09-15T10:45:30.191Z,472.50
2022-09-15T10:46:30.109Z,466.88
2022-09-15T10:47:30.120Z,472.50
2022-09-15T10:48:30.065Z,517.50
2022-09-15T10:49:30.006Z,534.38
2022-09-15T10:50:29.996Z,511.88
2022-09-15T10:51:30.036Z,478.12
2022-09-15T10:52:30.001Z,444.38
2022-09-15T10:53:29.963Z,427.50
2022-09-15T10:54:29.986Z,421.88
2022-09-15T10:55:48.891Z,416.25
2022-09-15T10:56:30.950Z,399.38
2022-09-15T10:57:29.927Z,376.88
2022-09-15T10:58:29.931Z,371.25
2022-09-15T10:59:29.932Z,371.25
2022-09-15T11:00:29.892Z,360.00
2022-09-15T11:01:29.977Z,354.38
2022-09-15T11:02:30.045Z,343.12
2022-09-15T11:03:29.910Z,343.12
2022-09-15T11:04:29.862Z,354.38
2022-09-15T11:05:30.110Z,371.25
2022-09-15T11:06:29.831Z,405.00
2022-09-15T11:07:29.869Z,427.50
2022-09-15T11:08:29.839Z,444.38
2022-09-15T11:09:29.797Z,450.00
2022-09-15T11:10:29.801Z,444.38
2022-09-15T11:11:29.893Z,466.88
2022-09-15T11:12:29.773Z,500.62
2022-09-15T11:13:29.914Z,528.75
2022-09-15T11:14:29.782Z,551.25
2022-09-15T11:15:29.892Z,540.00
2022-09-15T11:16:29.823Z,551.25
2022-09-15T11:17:29.726Z,562.50
2022-09-15T11:18:29.726Z,534.38
2022-09-15T11:19:29.804Z,472.50
2022-09-15T11:20:30.050Z,376.88
2022-09-15T11:21:29.718Z,315.00
2022-09-15T11:22:29.660Z,292.50
2022-09-15T11:23:29.688Z,286.88
2022-09-15T11:24:29.714Z,298.12
2022-09-15T11:25:29.645Z,348.75
2022-09-15T11:26:29.643Z,410.62
2022-09-15T11:27:29.628Z,461.25
2022-09-15T11:28:29.809Z,444.38
2022-09-15T11:29:29.647Z,433.12
2022-09-15T11:30:29.632Z,433.12
2022-09-15T11:31:29.715Z,438.75
2022-09-15T11:32:29.873Z,438.75
2022-09-15T11:33:39.377Z,450.00
2022-09-15T11:34:29.712Z,483.75
2022-09-15T11:35:29.605Z,523.12
2022-09-15T11:36:29.640Z,478.12
2022-09-15T11:37:29.563Z,461.25
2022-09-15T11:38:29.490Z,489.38
2022-09-15T11:39:29.569Z,466.88
2022-09-15T11:40:29.582Z,421.88
2022-09-15T11:41:29.528Z,376.88
2022-09-15T11:42:29.549Z,337.50
2022-09-15T11:43:29.466Z,315.00
2022-09-15T11:44:29.561Z,298.12
2022-09-15T11:45:29.453Z,303.75
2022-09-15T11:46:29.558Z,292.50
2022-09-15T11:47:29.490Z,303.75
2022-09-15T11:48:29.427Z,326.25
2022-09-15T11:49:29.399Z,354.38
2022-09-15T11:50:29.441Z,405.00
2022-09-15T11:51:29.383Z,438.75
2022-09-15T11:52:29.400Z,466.88
2022-09-15T11:53:29.339Z,489.38
2022-09-15T11:54:31.472Z,478.12
2022-09-15T11:55:29.303Z,461.25
2022-09-15T11:56:29.345Z,472.50
2022-09-15T11:57:29.349Z,472.50
2022-09-15T11:58:29.291Z,427.50
2022-09-15T11:59:29.278Z,427.50
2022-09-15T12:00:29.265Z,410.62
2022-09-15T12:01:29.331Z,388.12
2022-09-15T12:02:29.457Z,393.75
2022-09-15T12:03:29.424Z,393.75
2022-09-15T12:04:29.263Z,371.25
2022-09-15T12:05:29.244Z,343.12
2022-09-15T12:06:29.217Z,315.00
2022-09-15T12:07:29.195Z,292.50
2022-09-15T12:08:29.230Z,303.75
2022-09-15T12:09:29.209Z,303.75
2022-09-15T12:10:29.178Z,275.62
2022-09-15T12:11:29.153Z,281.25
2022-09-15T12:12:30.715Z,292.50
2022-09-15T12:13:29.134Z,309.38
2022-09-15T12:14:29.365Z,315.00
2022-09-15T12:15:29.167Z,343.12
2022-09-15T12:16:29.138Z,360.00
2022-09-15T12:17:29.167Z,348.75
2022-09-15T12:18:46.671Z,348.75
2022-09-15T12:19:30.075Z,343.12
2022-09-15T12:20:29.088Z,360.00
2022-09-15T12:21:29.117Z,399.38
2022-09-15T12:22:29.080Z,399.38
2022-09-15T12:23:29.040Z,405.00
2022-09-15T12:24:29.092Z,461.25
2022-09-15T12:25:29.026Z,483.75
2022-09-15T12:26:29.042Z,489.38
2022-09-15T12:27:28.978Z,523.12
2022-09-15T12:28:28.971Z,585.00
2022-09-15T12:29:29.069Z,579.38
2022-09-15T12:30:28.975Z,534.38
2022-09-15T12:31:29.269Z,517.50
2022-09-15T12:32:29.009Z,506.25
2022-09-15T12:33:28.958Z,495.00
2022-09-15T12:34:28.900Z,506.25
2022-09-15T12:35:28.944Z,528.75
2022-09-15T12:36:28.902Z,528.75
2022-09-15T12:37:28.888Z,523.12
2022-09-15T12:38:28.899Z,511.88
2022-09-15T12:39:28.883Z,455.62
2022-09-15T12:40:28.943Z,450.00
2022-09-15T12:41:28.828Z,438.75
2022-09-15T12:42:28.816Z,427.50
2022-09-15T12:43:28.837Z,416.25
2022-09-15T12:44:28.811Z,393.75
2022-09-15T12:45:28.787Z,393.75
2022-09-15T12:46:28.888Z,371.25
2022-09-15T12:47:28.769Z,337.50
2022-09-15T12:48:28.773Z,309.38
2022-09-15T12:49:38.656Z,298.12
